sensor_id;sensor_type;location;lat;lon;timestamp;temperature;humidity
46652;DHT22;32377;52.182;5.398;2024-03-23T00:53:07;7.70;99.90
46652;DHT22;32377;52.182;5.398;2024-03-23T00:55:33;7.60;99.90
46652;DHT22;32377;52.182;5.398;2024-03-23T00:57:59;7.50;99.90
46652;DHT22;32377;52.182;5.398;2024-03-23T01:00:24;7.50;99.90
46652;DHT22;32377;52.182;5.398;2024-03-23T01:02:50;7.40;99.90
46652;DHT22;32377;52.182;5.398;2024-03-23T01:05:15;7.30;99.90
46652;DHT22;32377;52.182;5.398;2024-03-23T01:07:41;7.30;99.90
46652;DHT22;32377;52.182;5.398;2024-03-23T01:10:07;7.20;99.90
46652;DHT22;32377;52.182;5.398;2024-03-23T01:12:32;7.20;99.90
46652;DHT22;32377;52.182;5.398;2024-03-23T01:14:58;7.30;99.90
46652;DHT22;32377;52.182;5.398;2024-03-23T01:17:23;7.20;99.90
46652;DHT22;32377;52.182;5.398;2024-03-23T01:19:49;7.20;99.90
46652;DHT22;32377;52.182;5.398;2024-03-23T01:22:15;7.30;99.90
46652;DHT22;32377;52.182;5.398;2024-03-23T01:24:40;7.30;99.90
46652;DHT22;32377;52.182;5.398;2024-03-23T01:27:06;7.30;99.90
46652;DHT22;32377;52.182;5.398;2024-03-23T01:29:31;7.30;99.90
46652;DHT22;32377;52.182;5.398;2024-03-23T01:31:57;7.30;99.90
46652;DHT22;32377;52.182;5.398;2024-03-23T01:34:22;7.30;99.90
46652;DHT22;32377;52.182;5.398;2024-03-23T01:36:50;7.30;99.90
46652;DHT22;32377;52.182;5.398;2024-03-23T01:39:16;7.20;99.90
46652;DHT22;32377;52.182;5.398;2024-03-23T01:41:42;7.20;99.90
46652;DHT22;32377;52.182;5.398;2024-03-23T01:44:08;7.10;99.90
46652;DHT22;32377;52.182;5.398;2024-03-23T01:46:38;7.00;99.90
46652;DHT22;32377;52.182;5.398;2024-03-23T01:49:07;7.00;99.90
46652;DHT22;32377;52.182;5.398;2024-03-23T01:51:34;6.90;99.90
46652;DHT22;32377;52.182;5.398;2024-03-23T01:54:01;6.80;99.90
46652;DHT22;32377;52.182;5.398;2024-03-23T01:56:32;6.70;99.90
46652;DHT22;32377;52.182;5.398;2024-03-23T01:59:04;6.70;99.90
46652;DHT22;32377;52.182;5.398;2024-03-23T02:01:31;6.60;99.90
46652;DHT22;32377;52.182;5.398;2024-03-23T02:03:57;6.60;99.90
46652;DHT22;32377;52.182;5.398;2024-03-23T02:06:26;6.50;99.90
46652;DHT22;32377;52.182;5.398;2024-03-23T02:08:54;6.50;99.90
46652;DHT22;32377;52.182;5.398;2024-03-23T02:11:19;6.50;99.90
46652;DHT22;32377;52.182;5.398;2024-03-23T02:13:45;6.40;99.90
46652;DHT22;32377;52.182;5.398;2024-03-23T02:16:11;6.50;99.90
46652;DHT22;32377;52.182;5.398;2024-03-23T02:18:36;6.50;99.90
46652;DHT22;32377;52.182;5.398;2024-03-23T02:21:03;6.50;99.90
46652;DHT22;32377;52.182;5.398;2024-03-23T02:23:28;6.50;99.90
46652;DHT22;32377;52.182;5.398;2024-03-23T02:25:54;6.50;99.90
46652;DHT22;32377;52.182;5.398;2024-03-23T02:28:20;6.40;99.90
46652;DHT22;32377;52.182;5.398;2024-03-23T02:30:46;6.40;99.90
46652;DHT22;32377;52.182;5.398;2024-03-23T02:33:11;6.40;99.90
46652;DHT22;32377;52.182;5.398;2024-03-23T02:35:37;6.50;99.90
46652;DHT22;32377;52.182;5.398;2024-03-23T02:38:03;6.50;99.90
46652;DHT22;32377;52.182;5.398;2024-03-23T02:40:28;6.40;99.90
46652;DHT22;32377;52.182;5.398;2024-03-23T02:42:54;6.40;99.90
46652;DHT22;32377;52.182;5.398;2024-03-23T02:45:20;6.40;99.90
46652;DHT22;32377;52.182;5.398;2024-03-23T02:47:46;6.40;99.90
46652;DHT22;32377;52.182;5.398;2024-03-23T02:50:11;6.30;99.90
46652;DHT22;32377;52.182;5.398;2024-03-23T02:52:37;6.30;99.90
46652;DHT22;32377;52.182;5.398;2024-03-23T02:55:03;6.30;99.90
46652;DHT22;32377;52.182;5.398;2024-03-23T02:57:29;6.30;99.90
46652;DHT22;32377;52.182;5.398;2024-03-23T02:59:55;6.20;99.90
46652;DHT22;32377;52.182;5.398;2024-03-23T03:02:21;6.20;99.90
46652;DHT22;32377;52.182;5.398;2024-03-23T03:04:47;6.10;99.90
46652;DHT22;32377;52.182;5.398;2024-03-23T03:07:13;6.10;99.90
46652;DHT22;32377;52.182;5.398;2024-03-23T03:09:39;6.10;99.90
46652;DHT22;32377;52.182;5.398;2024-03-23T03:12:05;6.00;99.90
46652;DHT22;32377;52.182;5.398;2024-03-23T03:14:31;6.00;99.90
46652;DHT22;32377;52.182;5.398;2024-03-23T03:16:57;5.90;99.90
46652;DHT22;32377;52.182;5.398;2024-03-23T03:19:22;5.90;99.90
46652;DHT22;32377;52.182;5.398;2024-03-23T03:21:48;5.80;99.90
46652;DHT22;32377;52.182;5.398;2024-03-23T03:24:13;5.80;99.90
46652;DHT22;32377;52.182;5.398;2024-03-23T03:26:39;5.80;99.90
46652;DHT22;32377;52.182;5.398;2024-03-23T03:29:05;5.80;99.90
46652;DHT22;32377;52.182;5.398;2024-03-23T03:31:30;5.70;99.90
46652;DHT22;32377;52.182;5.398;2024-03-23T03:33:56;5.70;99.90
46652;DHT22;32377;52.182;5.398;2024-03-23T03:36:22;5.70;99.90
46652;DHT22;32377;52.182;5.398;2024-03-23T03:38:47;5.70;99.90
46652;DHT22;32377;52.182;5.398;2024-03-23T03:41:13;5.60;99.90
46652;DHT22;32377;52.182;5.398;2024-03-23T03:43:39;5.60;99.90
46652;DHT22;32377;52.182;5.398;2024-03-23T03:46:04;5.60;99.90
46652;DHT22;32377;52.182;5.398;2024-03-23T03:48:30;5.60;99.90
46652;DHT22;32377;52.182;5.398;2024-03-23T03:50:55;5.60;99.90
46652;DHT22;32377;52.182;5.398;2024-03-23T03:53:21;5.60;99.90
46652;DHT22;32377;52.182;5.398;2024-03-23T03:55:47;5.60;99.90
46652;DHT22;32377;52.182;5.398;2024-03-23T03:58:12;5.50;99.90
46652;DHT22;32377;52.182;5.398;2024-03-23T04:00:38;5.50;99.90
46652;DHT22;32377;52.182;5.398;2024-03-23T04:03:04;5.50;99.90
46652;DHT22;32377;52.182;5.398;2024-03-23T04:05:29;5.40;99.90
46652;DHT22;32377;52.182;5.398;2024-03-23T04:07:55;5.40;99.90
46652;DHT22;32377;52.182;5.398;2024-03-23T04:10:21;5.30;99.90
46652;DHT22;32377;52.182;5.398;2024-03-23T04:12:47;5.40;99.90
46652;DHT22;32377;52.182;5.398;2024-03-23T04:15:13;5.30;99.90
46652;DHT22;32377;52.182;5.398;2024-03-23T04:17:39;5.30;99.90
46652;DHT22;32377;52.182;5.398;2024-03-23T04:20:05;5.30;99.90
46652;DHT22;32377;52.182;5.398;2024-03-23T04:22:34;5.30;99.90
46652;DHT22;32377;52.182;5.398;2024-03-23T04:25:00;5.40;99.90
46652;DHT22;32377;52.182;5.398;2024-03-23T04:27:35;5.50;99.90
46652;DHT22;32377;52.182;5.398;2024-03-23T04:30:01;5.60;99.90
46652;DHT22;32377;52.182;5.398;2024-03-23T04:32:27;5.60;99.90
46652;DHT22;32377;52.182;5.398;2024-03-23T04:34:53;5.70;99.90
46652;DHT22;32377;52.182;5.398;2024-03-23T04:37:20;5.60;99.90
46652;DHT22;32377;52.182;5.398;2024-03-23T04:39:46;5.50;99.90
46652;DHT22;32377;52.182;5.398;2024-03-23T04:42:14;5.40;99.90
46652;DHT22;32377;52.182;5.398;2024-03-23T04:44:40;5.30;99.90
46652;DHT22;32377;52.182;5.398;2024-03-23T04:47:06;5.20;99.90
46652;DHT22;32377;52.182;5.398;2024-03-23T04:49:31;5.20;99.90
46652;DHT22;32377;52.182;5.398;2024-03-23T04:51:57;5.20;99.90
46652;DHT22;32377;52.182;5.398;2024-03-23T04:54:22;5.20;99.90
46652;DHT22;32377;52.182;5.398;2024-03-23T04:58:52;5.20;99.90
46652;DHT22;32377;52.182;5.398;2024-03-23T05:01:18;5.10;99.90
46652;DHT22;32377;52.182;5.398;2024-03-23T05:03:44;5.10;99.90
46652;DHT22;32377;52.182;5.398;2024-03-23T05:06:09;5.10;99.90
46652;DHT22;32377;52.182;5.398;2024-03-23T05:08:35;5.00;99.90
46652;DHT22;32377;52.182;5.398;2024-03-23T05:11:00;5.00;99.90
46652;DHT22;32377;52.182;5.398;2024-03-23T05:13:26;4.90;99.90
46652;DHT22;32377;52.182;5.398;2024-03-23T05:15:54;4.90;99.90
46652;DHT22;32377;52.182;5.398;2024-03-23T05:18:21;4.90;99.90
46652;DHT22;32377;52.182;5.398;2024-03-23T05:20:46;4.90;99.90
46652;DHT22;32377;52.182;5.398;2024-03-23T05:23:12;4.90;99.90
46652;DHT22;32377;52.182;5.398;2024-03-23T05:25:38;4.90;99.90
46652;DHT22;32377;52.182;5.398;2024-03-23T05:28:03;4.90;99.90
46652;DHT22;32377;52.182;5.398;2024-03-23T05:30:29;4.90;99.90
46652;DHT22;32377;52.182;5.398;2024-03-23T05:32:54;4.90;99.90
46652;DHT22;32377;52.182;5.398;2024-03-23T05:35:20;4.90;99.90
46652;DHT22;32377;52.182;5.398;2024-03-23T05:37:46;4.90;99.90
46652;DHT22;32377;52.182;5.398;2024-03-23T05:40:12;4.80;99.90
46652;DHT22;32377;52.182;5.398;2024-03-23T05:42:39;4.90;99.90
46652;DHT22;32377;52.182;5.398;2024-03-23T05:45:05;5.00;99.90
46652;DHT22;32377;52.182;5.398;2024-03-23T05:47:32;5.00;99.90
46652;DHT22;32377;52.182;5.398;2024-03-23T05:49:57;5.20;99.90
46652;DHT22;32377;52.182;5.398;2024-03-23T05:52:23;5.20;99.90
46652;DHT22;32377;52.182;5.398;2024-03-23T05:54:51;5.40;99.90
46652;DHT22;32377;52.182;5.398;2024-03-23T05:57:17;5.50;99.90
46652;DHT22;32377;52.182;5.398;2024-03-23T05:59:44;5.50;99.90
46652;DHT22;32377;52.182;5.398;2024-03-23T06:02:10;5.50;99.90
46652;DHT22;32377;52.182;5.398;2024-03-23T06:04:36;5.40;99.90
46652;DHT22;32377;52.182;5.398;2024-03-23T06:07:01;5.40;99.90
46652;DHT22;32377;52.182;5.398;2024-03-23T06:09:27;5.30;99.90
46652;DHT22;32377;52.182;5.398;2024-03-23T06:11:52;5.30;99.90
46652;DHT22;32377;52.182;5.398;2024-03-23T06:14:18;5.30;99.90
46652;DHT22;32377;52.182;5.398;2024-03-23T06:16:43;5.30;99.90
46652;DHT22;32377;52.182;5.398;2024-03-23T06:19:09;5.30;99.90
46652;DHT22;32377;52.182;5.398;2024-03-23T06:21:35;5.30;99.90
46652;DHT22;32377;52.182;5.398;2024-03-23T06:24:00;5.40;99.90
46652;DHT22;32377;52.182;5.398;2024-03-23T06:26:26;5.40;99.90
46652;DHT22;32377;52.182;5.398;2024-03-23T06:28:51;5.40;99.90
46652;DHT22;32377;52.182;5.398;2024-03-23T06:31:17;5.50;99.90
46652;DHT22;32377;52.182;5.398;2024-03-23T06:33:43;5.50;99.90
46652;DHT22;32377;52.182;5.398;2024-03-23T06:36:10;5.60;99.90
46652;DHT22;32377;52.182;5.398;2024-03-23T06:38:36;5.60;99.90
46652;DHT22;32377;52.182;5.398;2024-03-23T06:41:02;5.70;99.90
46652;DHT22;32377;52.182;5.398;2024-03-23T06:43:28;5.80;99.90
46652;DHT22;32377;52.182;5.398;2024-03-23T06:45:54;5.80;99.90
46652;DHT22;32377;52.182;5.398;2024-03-23T06:48:20;5.90;99.90
46652;DHT22;32377;52.182;5.398;2024-03-23T06:50:46;6.00;99.90
46652;DHT22;32377;52.182;5.398;2024-03-23T06:53:13;6.10;99.90
46652;DHT22;32377;52.182;5.398;2024-03-23T06:55:38;6.10;99.90
46652;DHT22;32377;52.182;5.398;2024-03-23T06:58:04;6.20;99.90
46652;DHT22;32377;52.182;5.398;2024-03-23T07:00:30;6.30;99.90
46652;DHT22;32377;52.182;5.398;2024-03-23T07:02:56;6.30;99.90
46652;DHT22;32377;52.182;5.398;2024-03-23T07:05:21;6.40;99.90
46652;DHT22;32377;52.182;5.398;2024-03-23T07:07:47;6.40;99.90
46652;DHT22;32377;52.182;5.398;2024-03-23T07:10:12;6.40;99.90
46652;DHT22;32377;52.182;5.398;2024-03-23T07:12:38;6.50;99.90
46652;DHT22;32377;52.182;5.398;2024-03-23T07:15:04;6.50;99.90
46652;DHT22;32377;52.182;5.398;2024-03-23T07:17:30;6.60;99.90
46652;DHT22;32377;52.182;5.398;2024-03-23T07:19:55;6.70;99.90
46652;DHT22;32377;52.182;5.398;2024-03-23T07:22:21;6.80;99.90
46652;DHT22;32377;52.182;5.398;2024-03-23T07:24:47;6.90;99.90
46652;DHT22;32377;52.182;5.398;2024-03-23T07:27:12;6.90;99.90
46652;DHT22;32377;52.182;5.398;2024-03-23T07:29:38;7.00;99.90
46652;DHT22;32377;52.182;5.398;2024-03-23T07:32:04;7.10;99.90
46652;DHT22;32377;52.182;5.398;2024-03-23T07:34:29;7.20;99.90
46652;DHT22;32377;52.182;5.398;2024-03-23T07:36:55;7.20;99.90
46652;DHT22;32377;52.182;5.398;2024-03-23T07:39:20;7.30;99.90
46652;DHT22;32377;52.182;5.398;2024-03-23T07:41:46;7.40;99.90
46652;DHT22;32377;52.182;5.398;2024-03-23T07:44:12;7.40;99.90
46652;DHT22;32377;52.182;5.398;2024-03-23T07:46:38;7.50;99.90
46652;DHT22;32377;52.182;5.398;2024-03-23T07:49:06;7.60;98.10
46652;DHT22;32377;52.182;5.398;2024-03-23T07:51:32;7.80;1.00
46652;DHT22;32377;52.182;5.398;2024-03-23T07:53:59;7.90;99.90
46652;DHT22;32377;52.182;5.398;2024-03-23T07:56:24;8.10;99.90
46652;DHT22;32377;52.182;5.398;2024-03-23T07:58:50;8.20;99.90
46652;DHT22;32377;52.182;5.398;2024-03-23T08:01:17;8.10;99.30
46652;DHT22;32377;52.182;5.398;2024-03-23T08:03:44;8.10;1.00
46652;DHT22;32377;52.182;5.398;2024-03-23T08:06:15;8.10;1.00
46652;DHT22;32377;52.182;5.398;2024-03-23T08:08:42;8.20;1.00
46652;DHT22;32377;52.182;5.398;2024-03-23T08:11:08;8.10;99.90
46652;DHT22;32377;52.182;5.398;2024-03-23T08:13:35;8.20;99.90
46652;DHT22;32377;52.182;5.398;2024-03-23T08:16:02;8.40;99.90
46652;DHT22;32377;52.182;5.398;2024-03-23T08:18:28;8.50;99.90
46652;DHT22;32377;52.182;5.398;2024-03-23T08:21:02;8.70;99.90
46652;DHT22;32377;52.182;5.398;2024-03-23T08:23:29;8.80;99.90
46652;DHT22;32377;52.182;5.398;2024-03-23T08:25:58;8.90;51.30
46652;DHT22;32377;52.182;5.398;2024-03-23T08:28:25;9.10;1.00
46652;DHT22;32377;52.182;5.398;2024-03-23T08:30:52;9.20;1.00
46652;DHT22;32377;52.182;5.398;2024-03-23T08:33:17;9.20;1.00
46652;DHT22;32377;52.182;5.398;2024-03-23T08:35:43;9.10;1.00
46652;DHT22;32377;52.182;5.398;2024-03-23T08:38:17;9.00;99.90
46652;DHT22;32377;52.182;5.398;2024-03-23T08:40:43;9.00;99.90
46652;DHT22;32377;52.182;5.398;2024-03-23T08:43:09;9.00;99.90
46652;DHT22;32377;52.182;5.398;2024-03-23T08:45:34;8.90;99.90
46652;DHT22;32377;52.182;5.398;2024-03-23T08:48:00;8.80;99.90
46652;DHT22;32377;52.182;5.398;2024-03-23T08:50:25;8.80;99.90
46652;DHT22;32377;52.182;5.398;2024-03-23T08:52:51;8.70;99.90
46652;DHT22;32377;52.182;5.398;2024-03-23T08:55:16;8.50;99.90
46652;DHT22;32377;52.182;5.398;2024-03-23T08:57:42;8.40;99.90
46652;DHT22;32377;52.182;5.398;2024-03-23T09:00:08;8.40;99.90
46652;DHT22;32377;52.182;5.398;2024-03-23T09:02:34;8.60;99.90
46652;DHT22;32377;52.182;5.398;2024-03-23T09:05:00;8.90;99.90
46652;DHT22;32377;52.182;5.398;2024-03-23T09:07:30;9.10;99.90
46652;DHT22;32377;52.182;5.398;2024-03-23T09:09:56;9.20;99.90
46652;DHT22;32377;52.182;5.398;2024-03-23T09:12:21;9.20;99.90
46652;DHT22;32377;52.182;5.398;2024-03-23T09:14:47;9.10;99.90
46652;DHT22;32377;52.182;5.398;2024-03-23T09:17:13;9.10;99.90
46652;DHT22;32377;52.182;5.398;2024-03-23T09:19:38;9.00;99.90
46652;DHT22;32377;52.182;5.398;2024-03-23T09:22:05;9.10;99.90
46652;DHT22;32377;52.182;5.398;2024-03-23T09:24:30;8.80;99.90
46652;DHT22;32377;52.182;5.398;2024-03-23T09:26:57;8.80;99.90
46652;DHT22;32377;52.182;5.398;2024-03-23T09:29:23;8.80;99.90
46652;DHT22;32377;52.182;5.398;2024-03-23T09:31:48;8.90;99.90
46652;DHT22;32377;52.182;5.398;2024-03-23T09:34:14;8.90;99.90
46652;DHT22;32377;52.182;5.398;2024-03-23T09:36:40;9.10;99.90
46652;DHT22;32377;52.182;5.398;2024-03-23T09:39:07;9.30;99.90
46652;DHT22;32377;52.182;5.398;2024-03-23T09:41:34;9.70;99.90
46652;DHT22;32377;52.182;5.398;2024-03-23T09:44:00;10.10;99.90
46652;DHT22;32377;52.182;5.398;2024-03-23T09:46:26;10.50;99.90
46652;DHT22;32377;52.182;5.398;2024-03-23T09:48:55;10.70;99.90
46652;DHT22;32377;52.182;5.398;2024-03-23T09:51:21;10.30;99.90
46652;DHT22;32377;52.182;5.398;2024-03-23T09:53:49;10.00;99.90
46652;DHT22;32377;52.182;5.398;2024-03-23T09:56:15;10.00;99.90
46652;DHT22;32377;52.182;5.398;2024-03-23T09:58:42;10.20;99.90
46652;DHT22;32377;52.182;5.398;2024-03-23T10:01:09;10.40;99.90
46652;DHT22;32377;52.182;5.398;2024-03-23T10:03:44;10.50;99.90
46652;DHT22;32377;52.182;5.398;2024-03-23T10:06:11;10.40;99.90
46652;DHT22;32377;52.182;5.398;2024-03-23T10:08:36;10.10;99.90
46652;DHT22;32377;52.182;5.398;2024-03-23T10:11:16;9.90;99.90
46652;DHT22;32377;52.182;5.398;2024-03-23T10:13:42;9.40;99.90
46652;DHT22;32377;52.182;5.398;2024-03-23T10:16:09;9.10;99.90
46652;DHT22;32377;52.182;5.398;2024-03-23T10:18:38;8.90;99.90
46652;DHT22;32377;52.182;5.398;2024-03-23T10:21:10;8.80;99.90
46652;DHT22;32377;52.182;5.398;2024-03-23T10:23:41;9.00;99.90
46652;DHT22;32377;52.182;5.398;2024-03-23T10:26:22;9.30;99.90
46652;DHT22;32377;52.182;5.398;2024-03-23T10:31:22;10.00;99.90
46652;DHT22;32377;52.182;5.398;2024-03-23T10:33:48;10.30;99.90
46652;DHT22;32377;52.182;5.398;2024-03-23T10:36:14;10.50;99.90
46652;DHT22;32377;52.182;5.398;2024-03-23T10:38:43;10.40;99.90
46652;DHT22;32377;52.182;5.398;2024-03-23T10:41:10;10.20;99.90
46652;DHT22;32377;52.182;5.398;2024-03-23T10:43:37;10.20;99.90
46652;DHT22;32377;52.182;5.398;2024-03-23T10:46:03;10.30;99.90
46652;DHT22;32377;52.182;5.398;2024-03-23T10:48:29;10.20;99.90
46652;DHT22;32377;52.182;5.398;2024-03-23T10:50:55;10.10;99.90
46652;DHT22;32377;52.182;5.398;2024-03-23T10:53:27;9.80;99.90
46652;DHT22;32377;52.182;5.398;2024-03-23T10:58:56;9.40;99.90
46652;DHT22;32377;52.182;5.398;2024-03-23T11:01:21;9.40;99.90
46652;DHT22;32377;52.182;5.398;2024-03-23T11:03:47;9.10;99.90
46652;DHT22;32377;52.182;5.398;2024-03-23T11:06:37;9.10;99.90
46652;DHT22;32377;52.182;5.398;2024-03-23T11:09:03;9.20;99.90
46652;DHT22;32377;52.182;5.398;2024-03-23T11:11:29;9.60;99.90
46652;DHT22;32377;52.182;5.398;2024-03-23T11:13:59;10.00;99.90
46652;DHT22;32377;52.182;5.398;2024-03-23T11:16:28;10.30;99.90
46652;DHT22;32377;52.182;5.398;2024-03-23T11:19:35;10.40;99.90
46652;DHT22;32377;52.182;5.398;2024-03-23T11:22:04;10.60;99.90
46652;DHT22;32377;52.182;5.398;2024-03-23T11:24:31;10.60;99.90
46652;DHT22;32377;52.182;5.398;2024-03-23T11:26:56;10.70;99.90
46652;DHT22;32377;52.182;5.398;2024-03-23T11:29:25;10.60;99.90
46652;DHT22;32377;52.182;5.398;2024-03-23T11:31:52;10.00;99.90
46652;DHT22;32377;52.182;5.398;2024-03-23T11:34:19;9.60;99.90
46652;DHT22;32377;52.182;5.398;2024-03-23T11:36:46;9.40;99.90
46652;DHT22;32377;52.182;5.398;2024-03-23T11:39:15;9.20;99.90
46652;DHT22;32377;52.182;5.398;2024-03-23T11:41:56;9.30;99.90
46652;DHT22;32377;52.182;5.398;2024-03-23T11:44:23;9.50;99.90
46652;DHT22;32377;52.182;5.398;2024-03-23T11:46:50;9.70;99.90
46652;DHT22;32377;52.182;5.398;2024-03-23T11:49:28;9.70;99.90
46652;DHT22;32377;52.182;5.398;2024-03-23T11:51:55;9.90;99.90
46652;DHT22;32377;52.182;5.398;2024-03-23T11:54:25;10.10;99.90
46652;DHT22;32377;52.182;5.398;2024-03-23T11:56:58;10.30;99.90
46652;DHT22;32377;52.182;5.398;2024-03-23T11:59:37;10.30;99.90
46652;DHT22;32377;52.182;5.398;2024-03-23T12:02:08;10.40;99.90
46652;DHT22;32377;52.182;5.398;2024-03-23T12:04:34;10.50;99.90
46652;DHT22;32377;52.182;5.398;2024-03-23T12:09:36;10.60;77.40
46652;DHT22;32377;52.182;5.398;2024-03-23T12:12:10;10.50;83.70
46652;DHT22;32377;52.182;5.398;2024-03-23T12:14:36;10.50;77.40
46652;DHT22;32377;52.182;5.398;2024-03-23T12:17:28;10.30;80.90
46652;DHT22;32377;52.182;5.398;2024-03-23T12:19:54;10.20;86.70
46652;DHT22;32377;52.182;5.398;2024-03-23T12:22:23;10.40;92.20
46652;DHT22;32377;52.182;5.398;2024-03-23T12:24:49;10.70;78.30
46652;DHT22;32377;52.182;5.398;2024-03-23T12:27:14;10.90;85.70
46652;DHT22;32377;52.182;5.398;2024-03-23T12:29:40;11.20;74.00
46652;DHT22;32377;52.182;5.398;2024-03-23T12:32:11;11.20;66.20
46652;DHT22;32377;52.182;5.398;2024-03-23T12:34:37;11.10;70.30
46652;DHT22;32377;52.182;5.398;2024-03-23T12:37:03;10.90;51.80
46652;DHT22;32377;52.182;5.398;2024-03-23T12:39:28;11.10;65.80
46652;DHT22;32377;52.182;5.398;2024-03-23T12:41:54;11.20;66.70
46652;DHT22;32377;52.182;5.398;2024-03-23T12:44:20;10.50;51.30
46652;DHT22;32377;52.182;5.398;2024-03-23T12:46:46;10.50;48.20
46652;DHT22;32377;52.182;5.398;2024-03-23T12:49:12;10.60;51.00
46652;DHT22;32377;52.182;5.398;2024-03-23T12:51:38;10.60;43.70
46652;DHT22;32377;52.182;5.398;2024-03-23T12:54:03;10.70;40.10
46652;DHT22;32377;52.182;5.398;2024-03-23T12:56:29;10.70;29.80
46652;DHT22;32377;52.182;5.398;2024-03-23T12:58:55;11.10;76.70
46652;DHT22;32377;52.182;5.398;2024-03-23T13:01:25;11.00;65.40
46652;DHT22;32377;52.182;5.398;2024-03-23T13:03:51;10.80;35.20
46652;DHT22;32377;52.182;5.398;2024-03-23T13:06:17;11.10;48.10
46652;DHT22;32377;52.182;5.398;2024-03-23T13:08:47;11.00;24.40
46652;DHT22;32377;52.182;5.398;2024-03-23T13:11:13;11.00;22.80
46652;DHT22;32377;52.182;5.398;2024-03-23T13:13:40;11.10;10.60
46652;DHT22;32377;52.182;5.398;2024-03-23T13:16:06;11.40;17.30
46652;DHT22;32377;52.182;5.398;2024-03-23T13:18:32;11.60;19.30
46652;DHT22;32377;52.182;5.398;2024-03-23T13:20:58;11.70;11.50
46652;DHT22;32377;52.182;5.398;2024-03-23T13:23:23;11.70;1.00
46652;DHT22;32377;52.182;5.398;2024-03-23T13:25:53;11.30;3.20
46652;DHT22;32377;52.182;5.398;2024-03-23T13:28:20;11.30;15.70
46652;DHT22;32377;52.182;5.398;2024-03-23T13:30:55;11.20;24.90
46652;DHT22;32377;52.182;5.398;2024-03-23T13:33:21;10.80;15.30
46652;DHT22;32377;52.182;5.398;2024-03-23T13:35:54;10.30;12.60
46652;DHT22;32377;52.182;5.398;2024-03-23T13:38:20;10.20;19.60
46652;DHT22;32377;52.182;5.398;2024-03-23T13:40:54;10.00;18.80
46652;DHT22;32377;52.182;5.398;2024-03-23T13:43:20;10.00;21.30
46652;DHT22;32377;52.182;5.398;2024-03-23T13:45:47;9.80;19.50
46652;DHT22;32377;52.182;5.398;2024-03-23T13:48:14;10.00;30.00
46652;DHT22;32377;52.182;5.398;2024-03-23T13:50:40;10.20;36.20
46652;DHT22;32377;52.182;5.398;2024-03-23T13:53:05;10.30;55.90
46652;DHT22;32377;52.182;5.398;2024-03-23T13:55:31;9.90;99.90
46652;DHT22;32377;52.182;5.398;2024-03-23T13:57:57;9.50;99.90
46652;DHT22;32377;52.182;5.398;2024-03-23T14:00:23;9.20;99.90
46652;DHT22;32377;52.182;5.398;2024-03-23T14:02:49;9.00;99.90
46652;DHT22;32377;52.182;5.398;2024-03-23T14:05:14;9.00;99.90
46652;DHT22;32377;52.182;5.398;2024-03-23T14:07:40;8.90;99.90
46652;DHT22;32377;52.182;5.398;2024-03-23T14:10:06;9.10;99.90
46652;DHT22;32377;52.182;5.398;2024-03-23T14:12:32;9.20;99.90
46652;DHT22;32377;52.182;5.398;2024-03-23T14:14:58;9.40;99.90
46652;DHT22;32377;52.182;5.398;2024-03-23T14:17:23;9.50;99.90
46652;DHT22;32377;52.182;5.398;2024-03-23T14:19:49;9.80;99.90
46652;DHT22;32377;52.182;5.398;2024-03-23T14:22:15;10.00;99.90
46652;DHT22;32377;52.182;5.398;2024-03-23T14:24:45;10.20;99.90
46652;DHT22;32377;52.182;5.398;2024-03-23T14:27:10;10.20;99.90
46652;DHT22;32377;52.182;5.398;2024-03-23T14:29:36;10.20;99.90
46652;DHT22;32377;52.182;5.398;2024-03-23T14:32:01;10.40;99.90
46652;DHT22;32377;52.182;5.398;2024-03-23T14:34:27;10.50;99.90
46652;DHT22;32377;52.182;5.398;2024-03-23T14:36:55;10.50;99.90
46652;DHT22;32377;52.182;5.398;2024-03-23T14:39:26;10.40;99.90
46652;DHT22;32377;52.182;5.398;2024-03-23T14:41:52;10.40;99.90
46652;DHT22;32377;52.182;5.398;2024-03-23T14:44:18;10.40;99.90
46652;DHT22;32377;52.182;5.398;2024-03-23T14:46:44;10.60;99.00
46652;DHT22;32377;52.182;5.398;2024-03-23T14:49:14;10.60;83.70
46652;DHT22;32377;52.182;5.398;2024-03-23T14:51:42;10.70;65.00
46652;DHT22;32377;52.182;5.398;2024-03-23T14:54:08;10.60;32.60
46652;DHT22;32377;52.182;5.398;2024-03-23T14:56:33;10.60;56.30
46652;DHT22;32377;52.182;5.398;2024-03-23T14:59:00;10.40;55.30
46652;DHT22;32377;52.182;5.398;2024-03-23T15:01:25;10.20;55.30
46652;DHT22;32377;52.182;5.398;2024-03-23T15:03:51;10.00;61.80
46652;DHT22;32377;52.182;5.398;2024-03-23T15:06:19;9.90;99.90
46652;DHT22;32377;52.182;5.398;2024-03-23T15:08:44;8.70;99.90
46652;DHT22;32377;52.182;5.398;2024-03-23T15:11:10;8.20;99.90
46652;DHT22;32377;52.182;5.398;2024-03-23T15:13:36;8.20;99.90
46652;DHT22;32377;52.182;5.398;2024-03-23T15:16:02;8.40;1.00
46652;DHT22;32377;52.182;5.398;2024-03-23T15:18:29;8.70;1.00
46652;DHT22;32377;52.182;5.398;2024-03-23T15:20:56;8.70;99.90
46652;DHT22;32377;52.182;5.398;2024-03-23T15:23:22;8.60;99.90
46652;DHT22;32377;52.182;5.398;2024-03-23T15:26:01;8.50;99.90
46652;DHT22;32377;52.182;5.398;2024-03-23T15:28:28;8.60;99.90
46652;DHT22;32377;52.182;5.398;2024-03-23T15:31:09;8.50;99.90
46652;DHT22;32377;52.182;5.398;2024-03-23T15:33:39;8.40;99.90
46652;DHT22;32377;52.182;5.398;2024-03-23T15:36:07;8.40;99.90
46652;DHT22;32377;52.182;5.398;2024-03-23T15:38:33;8.50;99.90
46652;DHT22;32377;52.182;5.398;2024-03-23T15:40:59;8.50;99.90
46652;DHT22;32377;52.182;5.398;2024-03-23T15:43:25;8.50;99.90
46652;DHT22;32377;52.182;5.398;2024-03-23T15:45:55;8.50;99.90
46652;DHT22;32377;52.182;5.398;2024-03-23T15:48:21;8.60;99.90
46652;DHT22;32377;52.182;5.398;2024-03-23T15:51:16;8.80;99.90
46652;DHT22;32377;52.182;5.398;2024-03-23T15:53:43;8.80;99.90
46652;DHT22;32377;52.182;5.398;2024-03-23T15:56:09;8.70;99.90
46652;DHT22;32377;52.182;5.398;2024-03-23T15:58:34;8.60;99.90
46652;DHT22;32377;52.182;5.398;2024-03-23T16:01:07;8.50;99.90
46652;DHT22;32377;52.182;5.398;2024-03-23T16:03:36;8.50;99.90
46652;DHT22;32377;52.182;5.398;2024-03-23T16:06:04;8.50;99.90
46652;DHT22;32377;52.182;5.398;2024-03-23T16:08:31;8.40;99.90
46652;DHT22;32377;52.182;5.398;2024-03-23T16:11:01;8.30;99.90
46652;DHT22;32377;52.182;5.398;2024-03-23T16:13:27;8.20;99.90
46652;DHT22;32377;52.182;5.398;2024-03-23T16:16:03;8.20;99.90
46652;DHT22;32377;52.182;5.398;2024-03-23T16:18:30;8.10;1.00
46652;DHT22;32377;52.182;5.398;2024-03-23T16:20:57;8.20;1.00
46652;DHT22;32377;52.182;5.398;2024-03-23T16:23:23;8.20;99.90
46652;DHT22;32377;52.182;5.398;2024-03-23T16:25:54;8.20;99.90
46652;DHT22;32377;52.182;5.398;2024-03-23T16:28:27;7.90;99.90
46652;DHT22;32377;52.182;5.398;2024-03-23T16:31:14;7.80;99.90
46652;DHT22;32377;52.182;5.398;2024-03-23T16:33:41;7.60;99.90
46652;DHT22;32377;52.182;5.398;2024-03-23T16:36:08;7.50;99.90
46652;DHT22;32377;52.182;5.398;2024-03-23T16:38:38;7.40;99.90
46652;DHT22;32377;52.182;5.398;2024-03-23T16:41:05;7.20;99.90
46652;DHT22;32377;52.182;5.398;2024-03-23T16:43:32;7.20;99.90